Bloomingburg, Ohio
Current Conditions -  °F | °C
As of 3:15 AM on Tuesday 21 Oct 2014 (Local Time) from KUYF Reporting Station
Overcast Overcast  
Wind Chill: 45°   Ceiling: 6000
Heat Index: 48°   Visibility: 7mi
Dew Point: 46°   Wind: 8mph
Humidity: 93%   Direction: 310°NW
Pressure: 29.89"   Gusts: NA
Location:  39.61°N, 83.4°W
Report Text: KUYF 210715Z AUTO 31007KT 7SM OVC060 09/08 A2989 RMK AO2
Loading
Personal Weather Stations






























Interactive Weather Map
Tropical Storm Tracking
New forecast layout! Learn more

10-Day Weather Forecast

Advertisements
Track Severe Weather on mobile